sensor_id;sensor_type;location;lat;lon;timestamp;pressure;altitude;pressure_sealevel;temperature;humidity
64628;BME280;68467;50.960;0.314;2023-03-26T00:00:59;98757.94;;;5.22;100.00
64628;BME280;68467;50.960;0.314;2023-03-26T00:03:27;98754.58;;;5.43;100.00
64628;BME280;68467;50.960;0.314;2023-03-26T00:06:01;98749.35;;;5.42;100.00
64628;BME280;68467;50.960;0.314;2023-03-26T00:08:28;98738.10;;;5.53;100.00
64628;BME280;68467;50.960;0.314;2023-03-26T00:10:56;98735.74;;;5.59;100.00
64628;BME280;68467;50.960;0.314;2023-03-26T00:13:23;98729.64;;;6.01;100.00
64628;BME280;68467;50.960;0.314;2023-03-26T00:15:51;98722.78;;;5.70;100.00
64628;BME280;68467;50.960;0.314;2023-03-26T00:18:18;98714.59;;;5.72;100.00
64628;BME280;68467;50.960;0.314;2023-03-26T00:20:45;98709.42;;;5.72;100.00
64628;BME280;68467;50.960;0.314;2023-03-26T00:23:13;98699.53;;;5.56;100.00
64628;BME280;68467;50.960;0.314;2023-03-26T00:25:40;98690.06;;;5.50;100.00
64628;BME280;68467;50.960;0.314;2023-03-26T00:28:07;98689.25;;;5.27;100.00
64628;BME280;68467;50.960;0.314;2023-03-26T00:30:35;98679.06;;;5.43;100.00
64628;BME280;68467;50.960;0.314;2023-03-26T00:33:02;98687.71;;;5.30;100.00
64628;BME280;68467;50.960;0.314;2023-03-26T00:35:30;98684.93;;;5.47;100.00
64628;BME280;68467;50.960;0.314;2023-03-26T00:37:56;98680.33;;;5.73;100.00
64628;BME280;68467;50.960;0.314;2023-03-26T00:40:23;98673.42;;;5.24;100.00
64628;BME280;68467;50.960;0.314;2023-03-26T00:42:51;98668.02;;;5.44;100.00
64628;BME280;68467;50.960;0.314;2023-03-26T00:45:18;98656.18;;;5.31;100.00
64628;BME280;68467;50.960;0.314;2023-03-26T00:47:45;98653.66;;;5.59;100.00
64628;BME280;68467;50.960;0.314;2023-03-26T00:50:12;98646.89;;;5.67;100.00
64628;BME280;68467;50.960;0.314;2023-03-26T00:52:39;98645.86;;;5.58;100.00
64628;BME280;68467;50.960;0.314;2023-03-26T00:55:07;98646.66;;;5.64;100.00
64628;BME280;68467;50.960;0.314;2023-03-26T00:57:34;98644.37;;;5.46;100.00
64628;BME280;68467;50.960;0.314;2023-03-26T01:00:05;98640.71;;;5.75;100.00
64628;BME280;68467;50.960;0.314;2023-03-26T01:02:33;98638.60;;;5.51;100.00
64628;BME280;68467;50.960;0.314;2023-03-26T01:05:25;98633.96;;;5.46;100.00
64628;BME280;68467;50.960;0.314;2023-03-26T01:08:13;98629.38;;;5.16;100.00
64628;BME280;68467;50.960;0.314;2023-03-26T01:10:43;98624.96;;;5.30;100.00
64628;BME280;68467;50.960;0.314;2023-03-26T01:13:11;98624.20;;;5.40;100.00
64628;BME280;68467;50.960;0.314;2023-03-26T01:15:38;98619.35;;;5.29;100.00
64628;BME280;68467;50.960;0.314;2023-03-26T01:18:05;98615.71;;;5.15;100.00
64628;BME280;68467;50.960;0.314;2023-03-26T01:20:33;98607.04;;;5.42;100.00
64628;BME280;68467;50.960;0.314;2023-03-26T01:23:04;98597.92;;;5.32;100.00
64628;BME280;68467;50.960;0.314;2023-03-26T01:25:37;98592.70;;;5.35;100.00
64628;BME280;68467;50.960;0.314;2023-03-26T01:28:08;98590.21;;;5.26;100.00
64628;BME280;68467;50.960;0.314;2023-03-26T01:30:39;98581.74;;;5.13;100.00
64628;BME280;68467;50.960;0.314;2023-03-26T01:33:12;98589.63;;;5.04;100.00
64628;BME280;68467;50.960;0.314;2023-03-26T01:35:46;98582.13;;;5.05;100.00
64628;BME280;68467;50.960;0.314;2023-03-26T01:38:23;98573.29;;;5.04;100.00
64628;BME280;68467;50.960;0.314;2023-03-26T01:40:57;98573.20;;;5.21;100.00
64628;BME280;68467;50.960;0.314;2023-03-26T01:43:31;98569.56;;;5.12;100.00
64628;BME280;68467;50.960;0.314;2023-03-26T01:46:05;98557.42;;;4.85;100.00
64628;BME280;68467;50.960;0.314;2023-03-26T01:48:35;98560.65;;;4.93;100.00
64628;BME280;68467;50.960;0.314;2023-03-26T01:51:04;98556.05;;;4.90;100.00
64628;BME280;68467;50.960;0.314;2023-03-26T01:53:33;98555.72;;;4.81;100.00
64628;BME280;68467;50.960;0.314;2023-03-26T01:56:09;98547.71;;;4.50;100.00
64628;BME280;68467;50.960;0.314;2023-03-26T01:58:43;98550.14;;;4.52;100.00
64628;BME280;68467;50.960;0.314;2023-03-26T02:01:18;98540.67;;;4.68;100.00
64628;BME280;68467;50.960;0.314;2023-03-26T02:03:52;98540.20;;;4.28;100.00
64628;BME280;68467;50.960;0.314;2023-03-26T02:06:24;98535.62;;;4.55;100.00
64628;BME280;68467;50.960;0.314;2023-03-26T02:08:57;98526.88;;;4.38;100.00
64628;BME280;68467;50.960;0.314;2023-03-26T02:11:25;98525.50;;;4.36;100.00
64628;BME280;68467;50.960;0.314;2023-03-26T02:13:52;98525.08;;;3.96;100.00
64628;BME280;68467;50.960;0.314;2023-03-26T02:16:20;98522.90;;;3.69;100.00
64628;BME280;68467;50.960;0.314;2023-03-26T02:18:48;98519.72;;;3.87;100.00
64628;BME280;68467;50.960;0.314;2023-03-26T02:21:17;98515.44;;;3.95;100.00
64628;BME280;68467;50.960;0.314;2023-03-26T02:23:46;98512.73;;;3.98;100.00
64628;BME280;68467;50.960;0.314;2023-03-26T02:26:16;98505.15;;;4.46;100.00
64628;BME280;68467;50.960;0.314;2023-03-26T02:28:44;98504.82;;;3.65;100.00
64628;BME280;68467;50.960;0.314;2023-03-26T02:31:11;98501.62;;;3.92;100.00
64628;BME280;68467;50.960;0.314;2023-03-26T02:33:38;98500.20;;;3.77;100.00
64628;BME280;68467;50.960;0.314;2023-03-26T02:36:06;98495.72;;;3.33;100.00
64628;BME280;68467;50.960;0.314;2023-03-26T02:38:34;98495.14;;;3.64;100.00
64628;BME280;68467;50.960;0.314;2023-03-26T02:41:01;98485.41;;;3.24;100.00
64628;BME280;68467;50.960;0.314;2023-03-26T02:43:29;98478.73;;;3.53;100.00
64628;BME280;68467;50.960;0.314;2023-03-26T02:45:57;98480.86;;;3.55;100.00
64628;BME280;68467;50.960;0.314;2023-03-26T02:48:24;98472.86;;;3.35;100.00
64628;BME280;68467;50.960;0.314;2023-03-26T02:50:51;98471.60;;;3.40;100.00
64628;BME280;68467;50.960;0.314;2023-03-26T02:53:19;98466.30;;;3.87;100.00
64628;BME280;68467;50.960;0.314;2023-03-26T02:55:47;98459.13;;;3.91;100.00
64628;BME280;68467;50.960;0.314;2023-03-26T02:58:13;98457.37;;;3.38;100.00
64628;BME280;68467;50.960;0.314;2023-03-26T03:00:41;98457.40;;;3.33;100.00
64628;BME280;68467;50.960;0.314;2023-03-26T03:03:08;98447.70;;;4.20;100.00
64628;BME280;68467;50.960;0.314;2023-03-26T03:05:35;98435.18;;;4.40;100.00
64628;BME280;68467;50.960;0.314;2023-03-26T03:08:03;98430.37;;;4.39;100.00
64628;BME280;68467;50.960;0.314;2023-03-26T03:10:31;98425.00;;;4.25;100.00
64628;BME280;68467;50.960;0.314;2023-03-26T03:12:58;98421.43;;;4.13;100.00
64628;BME280;68467;50.960;0.314;2023-03-26T03:15:25;98419.09;;;4.52;100.00
64628;BME280;68467;50.960;0.314;2023-03-26T03:17:52;98414.04;;;4.42;100.00
64628;BME280;68467;50.960;0.314;2023-03-26T03:20:19;98408.13;;;4.49;100.00
64628;BME280;68467;50.960;0.314;2023-03-26T03:22:46;98401.65;;;4.51;100.00
64628;BME280;68467;50.960;0.314;2023-03-26T03:25:13;98399.46;;;4.27;100.00
64628;BME280;68467;50.960;0.314;2023-03-26T03:27:40;98393.63;;;3.69;100.00
64628;BME280;68467;50.960;0.314;2023-03-26T03:30:09;98389.25;;;4.12;100.00
64628;BME280;68467;50.960;0.314;2023-03-26T03:32:37;98384.35;;;4.10;100.00
64628;BME280;68467;50.960;0.314;2023-03-26T03:35:05;98381.05;;;4.43;100.00
64628;BME280;68467;50.960;0.314;2023-03-26T03:37:32;98378.43;;;4.41;100.00
64628;BME280;68467;50.960;0.314;2023-03-26T03:39:59;98370.42;;;4.81;100.00
64628;BME280;68467;50.960;0.314;2023-03-26T03:42:26;98370.88;;;4.52;100.00
64628;BME280;68467;50.960;0.314;2023-03-26T03:44:53;98368.76;;;4.28;100.00
64628;BME280;68467;50.960;0.314;2023-03-26T03:47:20;98365.27;;;4.70;100.00
64628;BME280;68467;50.960;0.314;2023-03-26T03:49:48;98360.89;;;4.27;100.00
64628;BME280;68467;50.960;0.314;2023-03-26T03:52:15;98357.34;;;4.21;100.00
64628;BME280;68467;50.960;0.314;2023-03-26T03:54:42;98353.66;;;4.30;100.00
64628;BME280;68467;50.960;0.314;2023-03-26T03:57:09;98347.93;;;4.87;100.00
64628;BME280;68467;50.960;0.314;2023-03-26T03:59:36;98345.40;;;4.47;100.00
64628;BME280;68467;50.960;0.314;2023-03-26T04:02:03;98340.50;;;4.45;100.00
64628;BME280;68467;50.960;0.314;2023-03-26T04:04:31;98341.71;;;4.61;100.00
64628;BME280;68467;50.960;0.314;2023-03-26T04:06:58;98339.21;;;4.31;100.00
64628;BME280;68467;50.960;0.314;2023-03-26T04:09:25;98338.92;;;4.58;100.00
64628;BME280;68467;50.960;0.314;2023-03-26T04:11:52;98338.09;;;4.22;100.00
64628;BME280;68467;50.960;0.314;2023-03-26T04:14:19;98334.98;;;4.32;100.00
64628;BME280;68467;50.960;0.314;2023-03-26T04:16:46;98330.64;;;4.20;100.00
64628;BME280;68467;50.960;0.314;2023-03-26T04:19:14;98330.57;;;3.78;100.00
64628;BME280;68467;50.960;0.314;2023-03-26T04:21:41;98322.20;;;4.53;100.00
64628;BME280;68467;50.960;0.314;2023-03-26T04:24:08;98319.15;;;5.68;100.00
64628;BME280;68467;50.960;0.314;2023-03-26T04:26:35;98312.41;;;5.00;100.00
64628;BME280;68467;50.960;0.314;2023-03-26T04:29:04;98304.20;;;5.99;100.00
64628;BME280;68467;50.960;0.314;2023-03-26T04:31:32;98302.28;;;5.33;100.00
64628;BME280;68467;50.960;0.314;2023-03-26T04:34:05;98297.26;;;5.22;100.00
64628;BME280;68467;50.960;0.314;2023-03-26T04:36:33;98298.22;;;5.61;100.00
64628;BME280;68467;50.960;0.314;2023-03-26T04:39:02;98294.14;;;5.03;100.00
64628;BME280;68467;50.960;0.314;2023-03-26T04:41:30;98294.26;;;4.91;100.00
64628;BME280;68467;50.960;0.314;2023-03-26T04:43:57;98295.73;;;3.98;100.00
64628;BME280;68467;50.960;0.314;2023-03-26T04:46:24;98293.03;;;4.64;100.00
64628;BME280;68467;50.960;0.314;2023-03-26T04:48:52;98287.05;;;5.03;100.00
64628;BME280;68467;50.960;0.314;2023-03-26T04:51:23;98286.68;;;5.17;100.00
64628;BME280;68467;50.960;0.314;2023-03-26T04:53:52;98283.11;;;5.59;100.00
64628;BME280;68467;50.960;0.314;2023-03-26T04:56:31;98280.06;;;5.03;100.00
64628;BME280;68467;50.960;0.314;2023-03-26T04:59:01;98281.49;;;4.82;100.00
64628;BME280;68467;50.960;0.314;2023-03-26T05:01:29;98277.44;;;5.46;100.00
64628;BME280;68467;50.960;0.314;2023-03-26T05:03:57;98273.97;;;5.89;100.00
64628;BME280;68467;50.960;0.314;2023-03-26T05:06:25;98268.82;;;5.90;100.00
64628;BME280;68467;50.960;0.314;2023-03-26T05:08:53;98268.17;;;7.04;100.00
64628;BME280;68467;50.960;0.314;2023-03-26T05:11:20;98260.63;;;6.60;100.00
64628;BME280;68467;50.960;0.314;2023-03-26T05:13:47;98266.93;;;6.80;100.00
64628;BME280;68467;50.960;0.314;2023-03-26T05:16:15;98265.05;;;6.00;100.00
64628;BME280;68467;50.960;0.314;2023-03-26T05:18:42;98264.83;;;5.31;100.00
64628;BME280;68467;50.960;0.314;2023-03-26T05:21:09;98263.30;;;6.04;100.00
64628;BME280;68467;50.960;0.314;2023-03-26T05:23:36;98261.63;;;5.87;100.00
64628;BME280;68467;50.960;0.314;2023-03-26T05:26:03;98258.35;;;6.42;100.00
64628;BME280;68467;50.960;0.314;2023-03-26T05:28:30;98258.32;;;6.51;100.00
64628;BME280;68467;50.960;0.314;2023-03-26T05:30:57;98254.94;;;7.71;100.00
64628;BME280;68467;50.960;0.314;2023-03-26T05:33:25;98260.79;;;8.42;100.00
64628;BME280;68467;50.960;0.314;2023-03-26T05:35:59;98257.14;;;7.38;100.00
64628;BME280;68467;50.960;0.314;2023-03-26T05:38:27;98261.98;;;7.57;100.00
64628;BME280;68467;50.960;0.314;2023-03-26T05:40:57;98259.08;;;8.16;100.00
64628;BME280;68467;50.960;0.314;2023-03-26T05:43:24;98261.68;;;7.30;100.00
64628;BME280;68467;50.960;0.314;2023-03-26T05:45:51;98261.38;;;7.26;100.00
64628;BME280;68467;50.960;0.314;2023-03-26T05:48:19;98263.75;;;7.36;100.00
64628;BME280;68467;50.960;0.314;2023-03-26T05:50:47;98265.07;;;8.00;100.00
64628;BME280;68467;50.960;0.314;2023-03-26T05:53:14;98265.38;;;7.35;100.00
64628;BME280;68467;50.960;0.314;2023-03-26T05:55:43;98267.21;;;7.28;100.00
64628;BME280;68467;50.960;0.314;2023-03-26T05:58:10;98266.80;;;6.75;100.00
64628;BME280;68467;50.960;0.314;2023-03-26T06:00:37;98267.74;;;7.26;100.00
64628;BME280;68467;50.960;0.314;2023-03-26T06:03:04;98264.08;;;8.18;100.00
64628;BME280;68467;50.960;0.314;2023-03-26T06:05:32;98261.82;;;8.22;100.00
64628;BME280;68467;50.960;0.314;2023-03-26T06:08:00;98267.27;;;7.51;100.00
64628;BME280;68467;50.960;0.314;2023-03-26T06:10:28;98269.83;;;7.27;100.00
64628;BME280;68467;50.960;0.314;2023-03-26T06:12:55;98270.74;;;7.55;100.00
64628;BME280;68467;50.960;0.314;2023-03-26T06:15:22;98280.00;;;5.76;100.00
64628;BME280;68467;50.960;0.314;2023-03-26T06:17:49;98281.07;;;6.23;100.00
64628;BME280;68467;50.960;0.314;2023-03-26T06:20:16;98283.28;;;5.74;100.00
64628;BME280;68467;50.960;0.314;2023-03-26T06:22:43;98283.75;;;6.39;100.00
64628;BME280;68467;50.960;0.314;2023-03-26T06:25:10;98284.95;;;7.07;100.00
64628;BME280;68467;50.960;0.314;2023-03-26T06:27:37;98285.75;;;6.16;100.00
64628;BME280;68467;50.960;0.314;2023-03-26T06:30:06;98289.22;;;6.00;100.00
64628;BME280;68467;50.960;0.314;2023-03-26T06:32:33;98288.93;;;7.32;100.00
64628;BME280;68467;50.960;0.314;2023-03-26T06:35:01;98290.16;;;7.75;100.00
64628;BME280;68467;50.960;0.314;2023-03-26T06:37:28;98293.85;;;7.83;100.00
64628;BME280;68467;50.960;0.314;2023-03-26T06:39:55;98293.97;;;7.52;100.00
64628;BME280;68467;50.960;0.314;2023-03-26T06:42:22;98295.27;;;9.02;100.00
64628;BME280;68467;50.960;0.314;2023-03-26T06:44:49;98298.88;;;8.48;100.00
64628;BME280;68467;50.960;0.314;2023-03-26T06:47:16;98299.60;;;7.88;100.00
64628;BME280;68467;50.960;0.314;2023-03-26T06:49:43;98303.43;;;7.74;100.00
64628;BME280;68467;50.960;0.314;2023-03-26T06:52:10;98306.58;;;8.34;100.00
64628;BME280;68467;50.960;0.314;2023-03-26T06:54:37;98309.89;;;7.68;100.00
64628;BME280;68467;50.960;0.314;2023-03-26T06:57:04;98314.15;;;7.46;100.00
64628;BME280;68467;50.960;0.314;2023-03-26T06:59:31;98317.79;;;7.80;100.00
64628;BME280;68467;50.960;0.314;2023-03-26T07:01:59;98322.34;;;7.33;100.00
64628;BME280;68467;50.960;0.314;2023-03-26T07:04:25;98324.93;;;8.36;100.00
64628;BME280;68467;50.960;0.314;2023-03-26T07:06:53;98325.60;;;7.81;100.00
64628;BME280;68467;50.960;0.314;2023-03-26T07:09:20;98330.60;;;8.60;100.00
64628;BME280;68467;50.960;0.314;2023-03-26T07:11:47;98333.76;;;8.24;100.00
64628;BME280;68467;50.960;0.314;2023-03-26T07:14:14;98339.67;;;8.40;100.00
64628;BME280;68467;50.960;0.314;2023-03-26T07:16:41;98341.69;;;7.42;100.00
64628;BME280;68467;50.960;0.314;2023-03-26T07:19:08;98345.08;;;6.83;100.00
64628;BME280;68467;50.960;0.314;2023-03-26T07:21:35;98348.25;;;6.88;100.00
64628;BME280;68467;50.960;0.314;2023-03-26T07:24:03;98353.44;;;7.45;100.00
64628;BME280;68467;50.960;0.314;2023-03-26T07:26:36;98350.26;;;7.45;100.00
64628;BME280;68467;50.960;0.314;2023-03-26T07:29:12;98351.02;;;8.16;100.00
64628;BME280;68467;50.960;0.314;2023-03-26T07:31:46;98355.31;;;7.41;100.00
64628;BME280;68467;50.960;0.314;2023-03-26T07:34:30;98358.80;;;8.84;100.00
64628;BME280;68467;50.960;0.314;2023-03-26T07:37:06;98356.80;;;9.08;100.00
64628;BME280;68467;50.960;0.314;2023-03-26T07:39:45;98359.70;;;9.04;100.00
64628;BME280;68467;50.960;0.314;2023-03-26T07:42:27;98360.79;;;8.69;100.00
64628;BME280;68467;50.960;0.314;2023-03-26T07:45:02;98362.60;;;9.04;100.00
64628;BME280;68467;50.960;0.314;2023-03-26T07:47:37;98368.49;;;7.75;100.00
64628;BME280;68467;50.960;0.314;2023-03-26T07:50:14;98373.50;;;8.43;100.00
64628;BME280;68467;50.960;0.314;2023-03-26T07:52:42;98375.12;;;8.87;100.00
64628;BME280;68467;50.960;0.314;2023-03-26T07:55:12;98379.00;;;8.72;100.00
64628;BME280;68467;50.960;0.314;2023-03-26T07:57:46;98382.61;;;8.00;100.00
64628;BME280;68467;50.960;0.314;2023-03-26T08:00:18;98388.09;;;7.81;100.00
64628;BME280;68467;50.960;0.314;2023-03-26T08:03:07;98389.67;;;8.31;100.00
64628;BME280;68467;50.960;0.314;2023-03-26T08:05:41;98394.20;;;7.99;100.00
64628;BME280;68467;50.960;0.314;2023-03-26T08:08:14;98398.84;;;7.97;100.00
64628;BME280;68467;50.960;0.314;2023-03-26T08:10:55;98402.01;;;8.01;100.00
64628;BME280;68467;50.960;0.314;2023-03-26T08:13:35;98404.27;;;8.34;100.00
64628;BME280;68467;50.960;0.314;2023-03-26T08:16:10;98403.37;;;8.69;100.00
64628;BME280;68467;50.960;0.314;2023-03-26T08:18:47;98410.39;;;8.14;100.00
64628;BME280;68467;50.960;0.314;2023-03-26T08:21:21;98412.47;;;7.87;100.00
64628;BME280;68467;50.960;0.314;2023-03-26T08:24:00;98417.36;;;8.18;100.00
64628;BME280;68467;50.960;0.314;2023-03-26T08:26:35;98421.20;;;7.66;100.00
64628;BME280;68467;50.960;0.314;2023-03-26T08:29:13;98426.53;;;8.17;100.00
64628;BME280;68467;50.960;0.314;2023-03-26T08:31:44;98434.80;;;7.15;100.00
64628;BME280;68467;50.960;0.314;2023-03-26T08:34:13;98436.62;;;7.78;100.00
64628;BME280;68467;50.960;0.314;2023-03-26T08:36:40;98442.71;;;7.36;100.00
64628;BME280;68467;50.960;0.314;2023-03-26T08:39:07;98446.20;;;7.38;100.00
64628;BME280;68467;50.960;0.314;2023-03-26T08:41:50;98449.64;;;7.75;100.00
64628;BME280;68467;50.960;0.314;2023-03-26T08:46:53;98462.51;;;8.20;100.00
64628;BME280;68467;50.960;0.314;2023-03-26T08:51:07;98467.11;;;9.12;100.00
64628;BME280;68467;50.960;0.314;2023-03-26T08:53:55;98472.57;;;8.35;100.00
64628;BME280;68467;50.960;0.314;2023-03-26T08:56:33;98475.90;;;8.56;100.00
64628;BME280;68467;50.960;0.314;2023-03-26T08:59:25;98479.29;;;8.12;100.00
64628;BME280;68467;50.960;0.314;2023-03-26T09:02:14;98484.22;;;7.89;100.00
64628;BME280;68467;50.960;0.314;2023-03-26T09:05:13;98486.11;;;7.60;100.00
64628;BME280;68467;50.960;0.314;2023-03-26T09:08:22;98495.08;;;7.51;100.00
64628;BME280;68467;50.960;0.314;2023-03-26T09:11:10;98504.54;;;7.69;100.00
64628;BME280;68467;50.960;0.314;2023-03-26T09:13:58;98506.33;;;7.57;100.00
64628;BME280;68467;50.960;0.314;2023-03-26T09:16:47;98511.81;;;7.82;100.00
64628;BME280;68467;50.960;0.314;2023-03-26T09:19:44;98511.87;;;7.39;100.00
64628;BME280;68467;50.960;0.314;2023-03-26T09:24:51;98524.38;;;7.26;100.00
64628;BME280;68467;50.960;0.314;2023-03-26T09:27:36;98528.41;;;7.00;100.00
64628;BME280;68467;50.960;0.314;2023-03-26T09:31:22;98531.25;;;7.45;100.00
64628;BME280;68467;50.960;0.314;2023-03-26T09:33:54;98531.04;;;8.10;100.00
64628;BME280;68467;50.960;0.314;2023-03-26T09:36:32;98537.37;;;7.38;100.00
64628;BME280;68467;50.960;0.314;2023-03-26T09:39:11;98541.49;;;7.18;100.00
64628;BME280;68467;50.960;0.314;2023-03-26T09:41:46;98544.33;;;7.69;100.00
64628;BME280;68467;50.960;0.314;2023-03-26T09:44:36;98552.95;;;7.47;100.00
64628;BME280;68467;50.960;0.314;2023-03-26T09:47:26;98556.25;;;7.33;100.00
64628;BME280;68467;50.960;0.314;2023-03-26T09:50:15;98562.34;;;7.32;100.00
64628;BME280;68467;50.960;0.314;2023-03-26T09:52:59;98565.40;;;6.84;100.00
64628;BME280;68467;50.960;0.314;2023-03-26T09:55:43;98565.44;;;7.40;100.00
64628;BME280;68467;50.960;0.314;2023-03-26T10:00:56;98574.61;;;7.73;100.00
64628;BME280;68467;50.960;0.314;2023-03-26T10:03:34;98578.55;;;7.48;100.00
64628;BME280;68467;50.960;0.314;2023-03-26T10:06:11;98584.49;;;8.00;100.00
64628;BME280;68467;50.960;0.314;2023-03-26T10:08:56;98590.02;;;7.09;100.00
64628;BME280;68467;50.960;0.314;2023-03-26T10:11:41;98597.68;;;7.36;100.00
64628;BME280;68467;50.960;0.314;2023-03-26T10:14:19;98607.49;;;6.88;100.00
64628;BME280;68467;50.960;0.314;2023-03-26T10:16:58;98613.72;;;6.99;100.00
64628;BME280;68467;50.960;0.314;2023-03-26T10:19:44;98620.22;;;7.26;100.00
64628;BME280;68467;50.960;0.314;2023-03-26T10:22:29;98625.17;;;6.96;100.00
64628;BME280;68467;50.960;0.314;2023-03-26T10:25:25;98631.48;;;6.47;100.00
64628;BME280;68467;50.960;0.314;2023-03-26T10:28:06;98636.36;;;6.94;100.00
64628;BME280;68467;50.960;0.314;2023-03-26T10:30:53;98639.96;;;6.56;100.00
64628;BME280;68467;50.960;0.314;2023-03-26T10:33:30;98646.03;;;7.23;100.00
64628;BME280;68467;50.960;0.314;2023-03-26T10:36:15;98652.06;;;6.72;100.00
64628;BME280;68467;50.960;0.314;2023-03-26T10:38:57;98655.19;;;6.91;100.00
64628;BME280;68467;50.960;0.314;2023-03-26T10:41:38;98657.45;;;6.94;100.00
64628;BME280;68467;50.960;0.314;2023-03-26T10:44:26;98661.09;;;7.14;100.00
64628;BME280;68467;50.960;0.314;2023-03-26T10:49:19;98678.25;;;6.37;100.00
64628;BME280;68467;50.960;0.314;2023-03-26T10:51:51;98690.60;;;6.16;100.00
64628;BME280;68467;50.960;0.314;2023-03-26T10:54:29;98696.84;;;6.28;100.00
64628;BME280;68467;50.960;0.314;2023-03-26T10:57:06;98703.28;;;5.76;100.00
64628;BME280;68467;50.960;0.314;2023-03-26T10:59:37;98714.75;;;6.72;100.00
64628;BME280;68467;50.960;0.314;2023-03-26T11:02:23;98721.71;;;5.71;100.00
64628;BME280;68467;50.960;0.314;2023-03-26T11:04:59;98727.82;;;6.48;100.00
64628;BME280;68467;50.960;0.314;2023-03-26T11:07:35;98728.92;;;6.44;100.00
64628;BME280;68467;50.960;0.314;2023-03-26T11:10:09;98733.68;;;6.67;100.00
64628;BME280;68467;50.960;0.314;2023-03-26T11:12:43;98738.45;;;5.95;100.00
64628;BME280;68467;50.960;0.314;2023-03-26T11:15:19;98742.46;;;6.67;100.00
64628;BME280;68467;50.960;0.314;2023-03-26T11:17:59;98745.02;;;6.93;100.00
64628;BME280;68467;50.960;0.314;2023-03-26T11:20:36;98747.04;;;6.01;100.00
64628;BME280;68467;50.960;0.314;2023-03-26T11:23:21;98752.81;;;6.64;100.00
64628;BME280;68467;50.960;0.314;2023-03-26T11:26:04;98758.88;;;6.13;100.00
64628;BME280;68467;50.960;0.314;2023-03-26T11:28:49;98762.85;;;6.30;100.00
64628;BME280;68467;50.960;0.314;2023-03-26T11:31:26;98766.67;;;5.82;100.00
64628;BME280;68467;50.960;0.314;2023-03-26T11:33:57;98774.15;;;6.22;100.00
64628;BME280;68467;50.960;0.314;2023-03-26T11:36:32;98779.65;;;5.81;100.00
64628;BME280;68467;50.960;0.314;2023-03-26T11:39:02;98781.76;;;6.69;100.00
64628;BME280;68467;50.960;0.314;2023-03-26T11:41:31;98784.14;;;6.25;100.00
64628;BME280;68467;50.960;0.314;2023-03-26T11:44:02;98790.63;;;6.18;100.00
64628;BME280;68467;50.960;0.314;2023-03-26T11:46:35;98800.30;;;5.82;100.00
64628;BME280;68467;50.960;0.314;2023-03-26T11:49:08;98803.97;;;5.89;100.00
64628;BME280;68467;50.960;0.314;2023-03-26T11:51:38;98810.16;;;6.28;100.00
64628;BME280;68467;50.960;0.314;2023-03-26T11:54:06;98813.26;;;6.55;100.00
64628;BME280;68467;50.960;0.314;2023-03-26T11:56:41;98816.53;;;6.75;100.00
64628;BME280;68467;50.960;0.314;2023-03-26T11:59:13;98820.08;;;6.13;100.00
64628;BME280;68467;50.960;0.314;2023-03-26T12:01:48;98828.65;;;6.46;100.00
64628;BME280;68467;50.960;0.314;2023-03-26T12:04:17;98830.24;;;6.36;100.00
64628;BME280;68467;50.960;0.314;2023-03-26T12:06:54;98838.71;;;6.31;100.00
64628;BME280;68467;50.960;0.314;2023-03-26T12:09:23;98841.73;;;6.72;100.00
64628;BME280;68467;50.960;0.314;2023-03-26T12:11:54;98844.18;;;7.06;100.00
64628;BME280;68467;50.960;0.314;2023-03-26T12:14:27;98854.44;;;6.52;100.00
64628;BME280;68467;50.960;0.314;2023-03-26T12:16:59;98858.88;;;6.28;100.00
64628;BME280;68467;50.960;0.314;2023-03-26T12:19:26;98866.48;;;6.00;100.00
64628;BME280;68467;50.960;0.314;2023-03-26T12:22:00;98868.72;;;7.28;100.00
64628;BME280;68467;50.960;0.314;2023-03-26T12:24:28;98870.46;;;7.04;100.00
64628;BME280;68467;50.960;0.314;2023-03-26T12:26:58;98874.71;;;7.10;100.00
64628;BME280;68467;50.960;0.314;2023-03-26T12:29:26;98880.66;;;5.67;100.00
64628;BME280;68467;50.960;0.314;2023-03-26T12:31:56;98891.59;;;5.93;100.00
64628;BME280;68467;50.960;0.314;2023-03-26T12:34:29;98898.70;;;6.01;100.00
64628;BME280;68467;50.960;0.314;2023-03-26T12:36:57;98906.34;;;5.55;100.00
64628;BME280;68467;50.960;0.314;2023-03-26T12:39:28;98911.72;;;5.38;100.00
64628;BME280;68467;50.960;0.314;2023-03-26T12:41:58;98911.36;;;6.34;100.00
64628;BME280;68467;50.960;0.314;2023-03-26T12:44:28;98909.65;;;6.22;100.00
64628;BME280;68467;50.960;0.314;2023-03-26T12:47:24;98914.10;;;6.73;100.00
64628;BME280;68467;50.960;0.314;2023-03-26T12:49:54;98909.61;;;7.41;100.00
64628;BME280;68467;50.960;0.314;2023-03-26T12:52:35;98915.04;;;6.94;100.00
64628;BME280;68467;50.960;0.314;2023-03-26T12:55:16;98918.15;;;6.48;100.00
64628;BME280;68467;50.960;0.314;2023-03-26T12:57:51;98922.42;;;6.12;100.00
64628;BME280;68467;50.960;0.314;2023-03-26T13:00:27;98927.75;;;7.23;100.00
64628;BME280;68467;50.960;0.314;2023-03-26T13:03:16;98930.08;;;7.27;100.00
64628;BME280;68467;50.960;0.314;2023-03-26T13:05:57;98933.74;;;7.64;100.00
64628;BME280;68467;50.960;0.314;2023-03-26T13:08:41;98937.40;;;7.06;100.00
64628;BME280;68467;50.960;0.314;2023-03-26T13:11:18;98942.23;;;6.92;100.00
64628;BME280;68467;50.960;0.314;2023-03-26T13:13:57;98945.70;;;6.90;100.00
64628;BME280;68467;50.960;0.314;2023-03-26T13:16:35;98948.61;;;6.70;100.00
64628;BME280;68467;50.960;0.314;2023-03-26T13:19:08;98952.11;;;6.40;100.00
64628;BME280;68467;50.960;0.314;2023-03-26T13:21:51;98963.39;;;6.14;100.00
64628;BME280;68467;50.960;0.314;2023-03-26T13:24:27;98980.48;;;5.94;100.00
64628;BME280;68467;50.960;0.314;2023-03-26T13:27:06;98989.93;;;5.96;100.00
64628;BME280;68467;50.960;0.314;2023-03-26T13:29:40;98993.95;;;6.05;100.00
64628;BME280;68467;50.960;0.314;2023-03-26T13:32:19;99005.45;;;5.24;100.00
64628;BME280;68467;50.960;0.314;2023-03-26T13:35:00;99007.06;;;5.50;100.00
64628;BME280;68467;50.960;0.314;2023-03-26T13:37:37;99012.22;;;5.23;100.00
64628;BME280;68467;50.960;0.314;2023-03-26T13:40:18;99019.76;;;5.65;100.00